sensor_id;sensor_type;location;lat;lon;timestamp;pressure;altitude;pressure_sealevel;temperature;humidity
68891;BME280;55932;48.702;8.884;2024-03-25T00:00:37;95430;;;4;72
68891;BME280;55932;48.702;8.884;2024-03-25T00:03:07;95430;;;3.9;72
68891;BME280;55932;48.702;8.884;2024-03-25T00:05:38;95430;;;3.8;72
68891;BME280;55932;48.702;8.884;2024-03-25T00:08:08;95430;;;3.8;72
68891;BME280;55932;48.702;8.884;2024-03-25T00:10:52;95440;;;3.7;72
68891;BME280;55932;48.702;8.884;2024-03-25T00:13:23;95430;;;3.7;72
68891;BME280;55932;48.702;8.884;2024-03-25T00:15:53;95430;;;3.6;72
68891;BME280;55932;48.702;8.884;2024-03-25T00:20:47;95430;;;3.5;72
68891;BME280;55932;48.702;8.884;2024-03-25T00:23:18;95430;;;3.5;72
68891;BME280;55932;48.702;8.884;2024-03-25T00:25:49;95420;;;3.5;72
68891;BME280;55932;48.702;8.884;2024-03-25T00:28:20;95430;;;3.5;72
68891;BME280;55932;48.702;8.884;2024-03-25T00:30:51;95420;;;3.5;72
68891;BME280;55932;48.702;8.884;2024-03-25T00:35:53;95430;;;3.4;72
68891;BME280;55932;48.702;8.884;2024-03-25T00:38:24;95420;;;3.4;72
68891;BME280;55932;48.702;8.884;2024-03-25T00:40:54;95420;;;3.5;72
68891;BME280;55932;48.702;8.884;2024-03-25T00:43:26;95420;;;3.5;72
68891;BME280;55932;48.702;8.884;2024-03-25T00:51:17;95420;;;3.5;72
68891;BME280;55932;48.702;8.884;2024-03-25T00:53:34;95420;;;3.5;72
68891;BME280;55932;48.702;8.884;2024-03-25T00:55:57;95420;;;3.5;72
68891;BME280;55932;48.702;8.884;2024-03-25T00:58:28;95420;;;3.5;72
68891;BME280;55932;48.702;8.884;2024-03-25T01:00:59;95410;;;3.5;72
68891;BME280;55932;48.702;8.884;2024-03-25T01:08:25;95400;;;3.6;72
68891;BME280;55932;48.702;8.884;2024-03-25T01:15:58;95390;;;3.6;72
68891;BME280;55932;48.702;8.884;2024-03-25T01:18:28;95390;;;3.5;72
68891;BME280;55932;48.702;8.884;2024-03-25T01:20:59;95380;;;3.5;72
68891;BME280;55932;48.702;8.884;2024-03-25T01:23:30;95390;;;3.5;72
68891;BME280;55932;48.702;8.884;2024-03-25T01:26:03;95390;;;3.5;72
68891;BME280;55932;48.702;8.884;2024-03-25T01:28:31;95390;;;3.5;72
68891;BME280;55932;48.702;8.884;2024-03-25T01:31:02;95380;;;3.6;72
68891;BME280;55932;48.702;8.884;2024-03-25T01:33:46;95390;;;3.5;72
68891;BME280;55932;48.702;8.884;2024-03-25T01:36:16;95380;;;3.6;72
68891;BME280;55932;48.702;8.884;2024-03-25T01:38:40;95380;;;3.6;72
68891;BME280;55932;48.702;8.884;2024-03-25T01:41:12;95380;;;3.6;72
68891;BME280;55932;48.702;8.884;2024-03-25T01:43:49;95370;;;3.6;72
68891;BME280;55932;48.702;8.884;2024-03-25T01:51:34;95380;;;3.6;72
68891;BME280;55932;48.702;8.884;2024-03-25T01:53:52;95370;;;3.6;72
68891;BME280;55932;48.702;8.884;2024-03-25T01:58:45;95360;;;3.7;72
68891;BME280;55932;48.702;8.884;2024-03-25T02:01:16;95360;;;3.8;72
68891;BME280;55932;48.702;8.884;2024-03-25T02:03:47;95360;;;3.8;72
68891;BME280;55932;48.702;8.884;2024-03-25T02:11:12;95370;;;3.8;72
68891;BME280;55932;48.702;8.884;2024-03-25T02:13:43;95370;;;3.8;72
68891;BME280;55932;48.702;8.884;2024-03-25T02:16:14;95370;;;3.8;72
68891;BME280;55932;48.702;8.884;2024-03-25T02:18:45;95370;;;3.8;72
68891;BME280;55932;48.702;8.884;2024-03-25T02:21:22;95370;;;3.8;72
68891;BME280;55932;48.702;8.884;2024-03-25T02:23:59;95370;;;3.8;72
68891;BME280;55932;48.702;8.884;2024-03-25T02:26:24;95370;;;3.8;72
68891;BME280;55932;48.702;8.884;2024-03-25T02:31:19;95360;;;3.7;72
68891;BME280;55932;48.702;8.884;2024-03-25T02:33:50;95370;;;3.7;72
68891;BME280;55932;48.702;8.884;2024-03-25T02:41:22;95370;;;3.8;72
68891;BME280;55932;48.702;8.884;2024-03-25T02:43:53;95360;;;3.8;72
68891;BME280;55932;48.702;8.884;2024-03-25T02:46:24;95360;;;3.7;72
68891;BME280;55932;48.702;8.884;2024-03-25T02:51:38;95360;;;3.8;72
68891;BME280;55932;48.702;8.884;2024-03-25T02:59:02;95350;;;3.7;72
68891;BME280;55932;48.702;8.884;2024-03-25T03:01:33;95350;;;3.6;72
68891;BME280;55932;48.702;8.884;2024-03-25T03:04:04;95350;;;3.6;72
68891;BME280;55932;48.702;8.884;2024-03-25T03:08:59;95350;;;3.5;72
68891;BME280;55932;48.702;8.884;2024-03-25T03:11:30;95350;;;3.4;72
68891;BME280;55932;48.702;8.884;2024-03-25T03:14:02;95350;;;3.4;72
68891;BME280;55932;48.702;8.884;2024-03-25T03:16:32;95350;;;3.3;72
68891;BME280;55932;48.702;8.884;2024-03-25T03:19:02;95340;;;3.2;72
68891;BME280;55932;48.702;8.884;2024-03-25T03:21:33;95340;;;3.2;72
68891;BME280;55932;48.702;8.884;2024-03-25T03:24:04;95340;;;3.2;72
68891;BME280;55932;48.702;8.884;2024-03-25T03:26:35;95340;;;3.3;72
68891;BME280;55932;48.702;8.884;2024-03-25T03:29:05;95340;;;3.3;72
68891;BME280;55932;48.702;8.884;2024-03-25T03:31:36;95340;;;3.3;72
68891;BME280;55932;48.702;8.884;2024-03-25T03:39:09;95340;;;3.3;72
68891;BME280;55932;48.702;8.884;2024-03-25T03:41:39;95340;;;3.3;72
68891;BME280;55932;48.702;8.884;2024-03-25T03:44:10;95340;;;3.1;72.5
68891;BME280;55932;48.702;8.884;2024-03-25T03:49:18;95350;;;3.1;72.5
68891;BME280;55932;48.702;8.884;2024-03-25T03:51:55;95350;;;3.2;72
68891;BME280;55932;48.702;8.884;2024-03-25T03:54:19;95350;;;3.2;72
68891;BME280;55932;48.702;8.884;2024-03-25T03:56:51;95350;;;3.2;72.5
68891;BME280;55932;48.702;8.884;2024-03-25T03:59:21;95350;;;3;72.5
68891;BME280;55932;48.702;8.884;2024-03-25T04:06:48;95370;;;2.8;73
68891;BME280;55932;48.702;8.884;2024-03-25T04:09:18;95360;;;2.7;73
68891;BME280;55932;48.702;8.884;2024-03-25T04:11:50;95360;;;2.7;73
68891;BME280;55932;48.702;8.884;2024-03-25T04:14:20;95360;;;2.6;73
68891;BME280;55932;48.702;8.884;2024-03-25T04:16:51;95360;;;2.5;73.5
68891;BME280;55932;48.702;8.884;2024-03-25T04:19:25;95360;;;2.4;73.5
68891;BME280;55932;48.702;8.884;2024-03-25T04:21:59;95350;;;2.4;73
68891;BME280;55932;48.702;8.884;2024-03-25T04:24:29;95340;;;2.3;73.5
68891;BME280;55932;48.702;8.884;2024-03-25T04:27:01;95340;;;2.1;73.5
68891;BME280;55932;48.702;8.884;2024-03-25T04:29:31;95350;;;2.1;73.5
68891;BME280;55932;48.702;8.884;2024-03-25T04:32:02;95350;;;2.1;73.5
68891;BME280;55932;48.702;8.884;2024-03-25T04:34:40;95350;;;2.1;73.5
68891;BME280;55932;48.702;8.884;2024-03-25T04:36:58;95350;;;2.2;73.5
68891;BME280;55932;48.702;8.884;2024-03-25T04:39:29;95360;;;2.1;73.5
68891;BME280;55932;48.702;8.884;2024-03-25T04:41:59;95360;;;1.9;73.5
68891;BME280;55932;48.702;8.884;2024-03-25T04:44:30;95370;;;1.7;74
68891;BME280;55932;48.702;8.884;2024-03-25T04:47:03;95370;;;1.9;73
68891;BME280;55932;48.702;8.884;2024-03-25T04:49:32;95370;;;2;73
68891;BME280;55932;48.702;8.884;2024-03-25T04:52:03;95370;;;2.1;72.5
68891;BME280;55932;48.702;8.884;2024-03-25T04:54:33;95370;;;2.2;72.5
68891;BME280;55932;48.702;8.884;2024-03-25T04:57:04;95370;;;2.4;72.5
68891;BME280;55932;48.702;8.884;2024-03-25T05:04:36;95380;;;2.7;72.5
68891;BME280;55932;48.702;8.884;2024-03-25T05:09:45;95380;;;2.8;72
68891;BME280;55932;48.702;8.884;2024-03-25T05:12:15;95380;;;2.8;72
68891;BME280;55932;48.702;8.884;2024-03-25T05:14:46;95380;;;2.8;72
68891;BME280;55932;48.702;8.884;2024-03-25T05:17:09;95380;;;2.9;72
68891;BME280;55932;48.702;8.884;2024-03-25T05:19:40;95380;;;2.9;72
68891;BME280;55932;48.702;8.884;2024-03-25T05:22:11;95380;;;3;72
68891;BME280;55932;48.702;8.884;2024-03-25T05:24:41;95380;;;3;72
68891;BME280;55932;48.702;8.884;2024-03-25T05:37:22;95380;;;3.1;72
68891;BME280;55932;48.702;8.884;2024-03-25T05:42:29;95390;;;3.1;72
68891;BME280;55932;48.702;8.884;2024-03-25T05:44:59;95390;;;3.1;72
68891;BME280;55932;48.702;8.884;2024-03-25T05:47:29;95390;;;3.1;72
68891;BME280;55932;48.702;8.884;2024-03-25T05:49:59;95390;;;3.1;72
68891;BME280;55932;48.702;8.884;2024-03-25T05:54:53;95380;;;3;72
68891;BME280;55932;48.702;8.884;2024-03-25T05:57:32;95380;;;3;72.5
68891;BME280;55932;48.702;8.884;2024-03-25T06:04:57;95390;;;3.1;72.5
68891;BME280;55932;48.702;8.884;2024-03-25T06:10:05;95390;;;3.2;72
68891;BME280;55932;48.702;8.884;2024-03-25T06:12:35;95380;;;3.1;72
68891;BME280;55932;48.702;8.884;2024-03-25T06:14:59;95390;;;3.1;72.5
68891;BME280;55932;48.702;8.884;2024-03-25T06:17:30;95390;;;3.1;72.5
68891;BME280;55932;48.702;8.884;2024-03-25T06:20:01;95390;;;3.2;72.5
68891;BME280;55932;48.702;8.884;2024-03-25T06:22:32;95390;;;3.4;72.5
68891;BME280;55932;48.702;8.884;2024-03-25T06:25:03;95390;;;3.5;72
68891;BME280;55932;48.702;8.884;2024-03-25T06:27:40;95390;;;3.6;72
68891;BME280;55932;48.702;8.884;2024-03-25T06:32:36;95380;;;3.9;71.5
68891;BME280;55932;48.702;8.884;2024-03-25T06:35:07;95380;;;3.9;71.5
68891;BME280;55932;48.702;8.884;2024-03-25T06:37:38;95380;;;4;71.5
68891;BME280;55932;48.702;8.884;2024-03-25T06:40:09;95380;;;4.1;71.5
68891;BME280;55932;48.702;8.884;2024-03-25T06:42:39;95390;;;4.1;71.5
68891;BME280;55932;48.702;8.884;2024-03-25T06:45:11;95390;;;4.2;71.5
68891;BME280;55932;48.702;8.884;2024-03-25T06:50:13;95390;;;4.2;71.5
68891;BME280;55932;48.702;8.884;2024-03-25T06:52:43;95400;;;4.1;71.5
68891;BME280;55932;48.702;8.884;2024-03-25T06:55:21;95400;;;4.1;71.5
68891;BME280;55932;48.702;8.884;2024-03-25T06:57:52;95400;;;4.1;72
68891;BME280;55932;48.702;8.884;2024-03-25T07:05:24;95400;;;5.8;74
68891;BME280;55932;48.702;8.884;2024-03-25T07:07:54;95410;;;5.9;73
68891;BME280;55932;48.702;8.884;2024-03-25T07:10:18;95400;;;7.3;73.5
68891;BME280;55932;48.702;8.884;2024-03-25T07:12:49;95390;;;8.8;72.5
68891;BME280;55932;48.702;8.884;2024-03-25T07:15:20;95380;;;10;71
68891;BME280;55932;48.702;8.884;2024-03-25T07:17:51;95380;;;10.7;69.5
68891;BME280;55932;48.702;8.884;2024-03-25T07:20:22;95380;;;10.9;69
68891;BME280;55932;48.702;8.884;2024-03-25T07:22:53;95370;;;10.7;68.5
68891;BME280;55932;48.702;8.884;2024-03-25T07:25:31;95370;;;10.5;69.5
68891;BME280;55932;48.702;8.884;2024-03-25T07:30:26;95360;;;10.3;70
68891;BME280;55932;48.702;8.884;2024-03-25T07:32:57;95360;;;10.2;70
68891;BME280;55932;48.702;8.884;2024-03-25T07:35:28;95360;;;10.1;70
68891;BME280;55932;48.702;8.884;2024-03-25T07:37:59;95360;;;10.2;70
68891;BME280;55932;48.702;8.884;2024-03-25T07:40:30;95360;;;9.9;69.5
68891;BME280;55932;48.702;8.884;2024-03-25T07:43:01;95360;;;9.6;69
68891;BME280;55932;48.702;8.884;2024-03-25T07:45:31;95360;;;9.3;70
68891;BME280;55932;48.702;8.884;2024-03-25T07:48:02;95360;;;9;70.5
68891;BME280;55932;48.702;8.884;2024-03-25T07:50:33;95370;;;8.9;71
68891;BME280;55932;48.702;8.884;2024-03-25T07:53:11;95360;;;8.5;70.5
68891;BME280;55932;48.702;8.884;2024-03-25T07:55:40;95360;;;8.5;71
68891;BME280;55932;48.702;8.884;2024-03-25T08:00:36;95360;;;8.9;71.5
68891;BME280;55932;48.702;8.884;2024-03-25T08:03:06;95360;;;9.2;71
68891;BME280;55932;48.702;8.884;2024-03-25T08:05:37;95370;;;9.2;71
68891;BME280;55932;48.702;8.884;2024-03-25T08:10:45;95360;;;9.3;71
68891;BME280;55932;48.702;8.884;2024-03-25T08:13:16;95350;;;9.2;70.5
68891;BME280;55932;48.702;8.884;2024-03-25T08:15:46;95350;;;9.2;70.5
68891;BME280;55932;48.702;8.884;2024-03-25T08:18:15;95350;;;9.4;70.5
68891;BME280;55932;48.702;8.884;2024-03-25T08:20:45;95350;;;9.5;71
68891;BME280;55932;48.702;8.884;2024-03-25T08:23:16;95350;;;9.5;71.5
68891;BME280;55932;48.702;8.884;2024-03-25T08:25:53;95340;;;9.9;71.5
68891;BME280;55932;48.702;8.884;2024-03-25T08:30:47;95340;;;10.5;71
68891;BME280;55932;48.702;8.884;2024-03-25T08:38:21;95340;;;9.5;69
68891;BME280;55932;48.702;8.884;2024-03-25T08:40:51;95340;;;8.8;69.5
68891;BME280;55932;48.702;8.884;2024-03-25T08:43:20;95330;;;8.4;70.5
68891;BME280;55932;48.702;8.884;2024-03-25T08:50:42;95330;;;9.1;70
68891;BME280;55932;48.702;8.884;2024-03-25T08:53:12;95310;;;10.9;71.5
68891;BME280;55932;48.702;8.884;2024-03-25T08:55:43;95300;;;13.3;69.5
68891;BME280;55932;48.702;8.884;2024-03-25T08:58:21;95300;;;13.8;68
68891;BME280;55932;48.702;8.884;2024-03-25T09:00:43;95290;;;13.7;68
68891;BME280;55932;48.702;8.884;2024-03-25T09:03:14;95290;;;14.1;68
68891;BME280;55932;48.702;8.884;2024-03-25T09:05:44;95300;;;14.7;68.5
68891;BME280;55932;48.702;8.884;2024-03-25T09:08:14;95290;;;15;68
68891;BME280;55932;48.702;8.884;2024-03-25T09:10:45;95300;;;14.3;67
68891;BME280;55932;48.702;8.884;2024-03-25T09:18:17;95300;;;10.2;70
68891;BME280;55932;48.702;8.884;2024-03-25T09:21:08;95300;;;9.8;69.5
68891;BME280;55932;48.702;8.884;2024-03-25T09:23:28;95300;;;9.5;70
68891;BME280;55932;48.702;8.884;2024-03-25T09:25:58;95290;;;9.5;69.5
68891;BME280;55932;48.702;8.884;2024-03-25T09:28:29;95290;;;9.4;70
68891;BME280;55932;48.702;8.884;2024-03-25T09:30:47;95300;;;9.5;70
68891;BME280;55932;48.702;8.884;2024-03-25T09:33:18;95290;;;10.3;70
68891;BME280;55932;48.702;8.884;2024-03-25T09:35:48;95290;;;11.8;71
68891;BME280;55932;48.702;8.884;2024-03-25T09:41:12;95280;;;11.2;69
68891;BME280;55932;48.702;8.884;2024-03-25T09:43:43;95280;;;10.4;70
68891;BME280;55932;48.702;8.884;2024-03-25T09:46:13;95280;;;10.1;69.5
68891;BME280;55932;48.702;8.884;2024-03-25T09:48:53;95280;;;10;69.5
68891;BME280;55932;48.702;8.884;2024-03-25T09:51:23;95270;;;10;69.5
68891;BME280;55932;48.702;8.884;2024-03-25T09:53:45;95270;;;9.9;69.5
68891;BME280;55932;48.702;8.884;2024-03-25T09:56:15;95260;;;9.9;69
68891;BME280;55932;48.702;8.884;2024-03-25T10:01:06;95260;;;9.7;69
68891;BME280;55932;48.702;8.884;2024-03-25T10:03:35;95250;;;9.7;69.5
68891;BME280;55932;48.702;8.884;2024-03-25T10:06:05;95250;;;10;69
68891;BME280;55932;48.702;8.884;2024-03-25T10:08:24;95240;;;9.9;69
68891;BME280;55932;48.702;8.884;2024-03-25T10:10:54;95240;;;10;69.5
68891;BME280;55932;48.702;8.884;2024-03-25T10:13:26;95230;;;10.2;69
68891;BME280;55932;48.702;8.884;2024-03-25T10:15:56;95230;;;10.3;69.5
68891;BME280;55932;48.702;8.884;2024-03-25T10:18:26;95230;;;10.6;69
68891;BME280;55932;48.702;8.884;2024-03-25T10:20:57;95220;;;11;68.5
68891;BME280;55932;48.702;8.884;2024-03-25T10:23:27;95220;;;10.9;68.5
68891;BME280;55932;48.702;8.884;2024-03-25T10:25:57;95220;;;11;68.5
68891;BME280;55932;48.702;8.884;2024-03-25T10:28:28;95200;;;11.2;68
68891;BME280;55932;48.702;8.884;2024-03-25T10:33:29;95200;;;12;68.5
68891;BME280;55932;48.702;8.884;2024-03-25T10:36:00;95200;;;13;67.5
68891;BME280;55932;48.702;8.884;2024-03-25T10:38:30;95200;;;14.5;68
68891;BME280;55932;48.702;8.884;2024-03-25T10:41:13;95190;;;16.1;67.5
68891;BME280;55932;48.702;8.884;2024-03-25T10:43:43;95190;;;16.7;67
68891;BME280;55932;48.702;8.884;2024-03-25T10:46:15;95190;;;16.2;67
68891;BME280;55932;48.702;8.884;2024-03-25T10:48:42;95190;;;15.4;66
68891;BME280;55932;48.702;8.884;2024-03-25T10:56:02;95180;;;12.1;69
68891;BME280;55932;48.702;8.884;2024-03-25T10:58:33;95170;;;12.9;70
68891;BME280;55932;48.702;8.884;2024-03-25T11:01:03;95170;;;15.4;69.5
68891;BME280;55932;48.702;8.884;2024-03-25T11:03:33;95160;;;16.7;68
68891;BME280;55932;48.702;8.884;2024-03-25T11:06:15;95160;;;16;67.5
68891;BME280;55932;48.702;8.884;2024-03-25T11:08:55;95160;;;14.7;67.5
68891;BME280;55932;48.702;8.884;2024-03-25T11:11:15;95150;;;13.7;69
68891;BME280;55932;48.702;8.884;2024-03-25T11:13:57;95150;;;13.4;69.5
68891;BME280;55932;48.702;8.884;2024-03-25T11:16:29;95140;;;13.3;69
68891;BME280;55932;48.702;8.884;2024-03-25T11:18:50;95140;;;13.6;68.5
68891;BME280;55932;48.702;8.884;2024-03-25T11:21:23;95140;;;13.1;69
68891;BME280;55932;48.702;8.884;2024-03-25T11:23:47;95130;;;12.6;69.5
68891;BME280;55932;48.702;8.884;2024-03-25T11:26:15;95120;;;12.5;69.5
68891;BME280;55932;48.702;8.884;2024-03-25T11:28:36;95120;;;13.4;69.5
68891;BME280;55932;48.702;8.884;2024-03-25T11:31:06;95100;;;16;68.5
68891;BME280;55932;48.702;8.884;2024-03-25T11:38:39;95090;;;13.8;69
68891;BME280;55932;48.702;8.884;2024-03-25T11:41:41;95080;;;14.7;68.5
68891;BME280;55932;48.702;8.884;2024-03-25T11:44:11;95090;;;15.5;68.5
68891;BME280;55932;48.702;8.884;2024-03-25T11:48:52;95080;;;17.9;66
68891;BME280;55932;48.702;8.884;2024-03-25T11:51:22;95070;;;18.7;65
68891;BME280;55932;48.702;8.884;2024-03-25T11:53:51;95070;;;18;65.5
68891;BME280;55932;48.702;8.884;2024-03-25T11:58:40;95070;;;17.5;67
68891;BME280;55932;48.702;8.884;2024-03-25T12:01:11;95060;;;18.3;66
68891;BME280;55932;48.702;8.884;2024-03-25T12:03:42;95060;;;18.5;66.5
68891;BME280;55932;48.702;8.884;2024-03-25T12:06:12;95050;;;19;66
68891;BME280;55932;48.702;8.884;2024-03-25T12:13:44;95050;;;13;70
68891;BME280;55932;48.702;8.884;2024-03-25T12:16:17;95040;;;11.9;71
68891;BME280;55932;48.702;8.884;2024-03-25T12:18:45;95030;;;13.1;70.5
68891;BME280;55932;48.702;8.884;2024-03-25T12:21:15;95030;;;14.5;69
68891;BME280;55932;48.702;8.884;2024-03-25T12:24:09;95010;;;14.7;68.5
68891;BME280;55932;48.702;8.884;2024-03-25T12:26:41;95010;;;14.5;68.5
68891;BME280;55932;48.702;8.884;2024-03-25T12:29:10;95010;;;15.5;68
68891;BME280;55932;48.702;8.884;2024-03-25T12:33:59;94990;;;17.3;66
68891;BME280;55932;48.702;8.884;2024-03-25T12:36:30;94990;;;17.4;65.5
68891;BME280;55932;48.702;8.884;2024-03-25T12:39:14;94980;;;15.5;66.5
68891;BME280;55932;48.702;8.884;2024-03-25T12:43:59;94970;;;14.1;68.5
68891;BME280;55932;48.702;8.884;2024-03-25T12:46:30;94960;;;16.4;66.5
68891;BME280;55932;48.702;8.884;2024-03-25T12:48:59;94960;;;17.9;65
68891;BME280;55932;48.702;8.884;2024-03-25T12:51:30;94960;;;18.3;64
68891;BME280;55932;48.702;8.884;2024-03-25T12:54:03;94960;;;18.9;63
68891;BME280;55932;48.702;8.884;2024-03-25T12:56:30;94950;;;19.1;63
68891;BME280;55932;48.702;8.884;2024-03-25T12:59:00;94940;;;19.1;63.5
68891;BME280;55932;48.702;8.884;2024-03-25T13:01:39;94940;;;19.3;63.5
68891;BME280;55932;48.702;8.884;2024-03-25T13:04:09;94940;;;19.3;62.5
68891;BME280;55932;48.702;8.884;2024-03-25T13:08:49;94930;;;19.5;62
68891;BME280;55932;48.702;8.884;2024-03-25T13:11:20;94920;;;19;62.5
68891;BME280;55932;48.702;8.884;2024-03-25T13:13:50;94920;;;18.8;62
68891;BME280;55932;48.702;8.884;2024-03-25T13:16:21;94920;;;18.9;62
68891;BME280;55932;48.702;8.884;2024-03-25T13:23:53;94900;;;19.1;61.5
68891;BME280;55932;48.702;8.884;2024-03-25T13:29:04;94900;;;18.8;61.5
68891;BME280;55932;48.702;8.884;2024-03-25T13:34:14;94890;;;19.5;61
68891;BME280;55932;48.702;8.884;2024-03-25T13:39:05;94880;;;20;61
68891;BME280;55932;48.702;8.884;2024-03-25T13:41:35;94880;;;19.8;60.5
68891;BME280;55932;48.702;8.884;2024-03-25T13:44:05;94880;;;20;60.5
68891;BME280;55932;48.702;8.884;2024-03-25T13:48:54;94870;;;19.1;61.5
68891;BME280;55932;48.702;8.884;2024-03-25T13:51:25;94860;;;19.1;60.5
68891;BME280;55932;48.702;8.884;2024-03-25T13:58:56;94850;;;19.4;60.5
68891;BME280;55932;48.702;8.884;2024-03-25T14:01:27;94840;;;20.4;59.5
68891;BME280;55932;48.702;8.884;2024-03-25T14:03:57;94830;;;19.7;60
68891;BME280;55932;48.702;8.884;2024-03-25T14:07:00;94840;;;19;62
68891;BME280;55932;48.702;8.884;2024-03-25T14:11:52;94840;;;18.3;62
68891;BME280;55932;48.702;8.884;2024-03-25T14:14:22;94830;;;18.8;62
68891;BME280;55932;48.702;8.884;2024-03-25T14:19:22;94810;;;19.3;60.5
68891;BME280;55932;48.702;8.884;2024-03-25T14:21:43;94810;;;18.5;61.5
68891;BME280;55932;48.702;8.884;2024-03-25T14:26:55;94800;;;18.3;61.5
68891;BME280;55932;48.702;8.884;2024-03-25T14:29:26;94790;;;18;61.5
68891;BME280;55932;48.702;8.884;2024-03-25T14:31:56;94790;;;18;62
68891;BME280;55932;48.702;8.884;2024-03-25T14:34:26;94780;;;17.9;61.5
68891;BME280;55932;48.702;8.884;2024-03-25T14:37:06;94780;;;17.8;60.5
68891;BME280;55932;48.702;8.884;2024-03-25T14:44:17;94770;;;18.6;58.5
68891;BME280;55932;48.702;8.884;2024-03-25T14:54:18;94760;;;16.1;63
68891;BME280;55932;48.702;8.884;2024-03-25T14:56:57;94760;;;15.2;65
68891;BME280;55932;48.702;8.884;2024-03-25T15:07:00;94750;;;15.1;64.5
68891;BME280;55932;48.702;8.884;2024-03-25T15:12:04;94750;;;14.4;66
68891;BME280;55932;48.702;8.884;2024-03-25T15:14:32;94740;;;14.1;66.5
68891;BME280;55932;48.702;8.884;2024-03-25T15:19:21;94730;;;14;67
68891;BME280;55932;48.702;8.884;2024-03-25T15:24:22;94720;;;14.4;66.5
68891;BME280;55932;48.702;8.884;2024-03-25T15:27:01;94720;;;14.4;66.5
68891;BME280;55932;48.702;8.884;2024-03-25T15:37:04;94710;;;15.7;63
68891;BME280;55932;48.702;8.884;2024-03-25T15:39:36;94700;;;15.7;63
68891;BME280;55932;48.702;8.884;2024-03-25T15:42:06;94700;;;15.5;63
68891;BME280;55932;48.702;8.884;2024-03-25T15:47:07;94690;;;15.9;62
68891;BME280;55932;48.702;8.884;2024-03-25T15:49:47;94680;;;15.5;62
68891;BME280;55932;48.702;8.884;2024-03-25T15:52:08;94680;;;14.6;63.5
68891;BME280;55932;48.702;8.884;2024-03-25T15:54:48;94680;;;13.5;66
68891;BME280;55932;48.702;8.884;2024-03-25T15:59:29;94680;;;13.6;66
68891;BME280;55932;48.702;8.884;2024-03-25T16:01:59;94670;;;14.5;64.5
68891;BME280;55932;48.702;8.884;2024-03-25T16:04:29;94670;;;15.5;62
68891;BME280;55932;48.702;8.884;2024-03-25T16:09:20;94670;;;15.8;61.5
68891;BME280;55932;48.702;8.884;2024-03-25T16:11:50;94670;;;15.7;61.5
68891;BME280;55932;48.702;8.884;2024-03-25T16:14:20;94670;;;15.5;61.5
68891;BME280;55932;48.702;8.884;2024-03-25T16:16:51;94670;;;15.4;61.5
68891;BME280;55932;48.702;8.884;2024-03-25T16:19:22;94660;;;15.3;61
68891;BME280;55932;48.702;8.884;2024-03-25T16:22:03;94660;;;15.3;61.5
68891;BME280;55932;48.702;8.884;2024-03-25T16:24:33;94650;;;15;62
68891;BME280;55932;48.702;8.884;2024-03-25T16:27:04;94650;;;14.8;62
68891;BME280;55932;48.702;8.884;2024-03-25T16:29:33;94640;;;14.9;61.5
68891;BME280;55932;48.702;8.884;2024-03-25T16:34:23;94630;;;14.5;61.5
68891;BME280;55932;48.702;8.884;2024-03-25T16:39:23;94630;;;14.4;61.5
68891;BME280;55932;48.702;8.884;2024-03-25T16:41:54;94620;;;13.9;62
68891;BME280;55932;48.702;8.884;2024-03-25T16:49:25;94620;;;12.7;64
68891;BME280;55932;48.702;8.884;2024-03-25T16:51:56;94610;;;12.4;64.5
68891;BME280;55932;48.702;8.884;2024-03-25T16:54:26;94610;;;12.3;64.5
68891;BME280;55932;48.702;8.884;2024-03-25T16:57:19;94610;;;12.5;64.5
68891;BME280;55932;48.702;8.884;2024-03-25T16:59:50;94610;;;12.7;64
68891;BME280;55932;48.702;8.884;2024-03-25T17:02:30;94610;;;12.6;63.5
68891;BME280;55932;48.702;8.884;2024-03-25T17:05:01;94610;;;12.3;64
68891;BME280;55932;48.702;8.884;2024-03-25T17:09:53;94610;;;12;64
68891;BME280;55932;48.702;8.884;2024-03-25T17:12:24;94610;;;11.9;64
68891;BME280;55932;48.702;8.884;2024-03-25T17:14:54;94620;;;11.6;64.5
68891;BME280;55932;48.702;8.884;2024-03-25T17:19:44;94620;;;10.6;65.5
68891;BME280;55932;48.702;8.884;2024-03-25T17:22:37;94610;;;9.8;67
68891;BME280;55932;48.702;8.884;2024-03-25T17:24:53;94620;;;9.3;68
68891;BME280;55932;48.702;8.884;2024-03-25T17:27:14;94630;;;9;68
68891;BME280;55932;48.702;8.884;2024-03-25T17:29:48;94620;;;8.5;69
68891;BME280;55932;48.702;8.884;2024-03-25T17:32:14;94620;;;8.1;69.5
68891;BME280;55932;48.702;8.884;2024-03-25T17:34:44;94610;;;8;69.5
68891;BME280;55932;48.702;8.884;2024-03-25T17:39:45;94620;;;7.6;70
68891;BME280;55932;48.702;8.884;2024-03-25T17:42:15;94620;;;7.5;70
68891;BME280;55932;48.702;8.884;2024-03-25T17:44:49;94620;;;7.4;70
68891;BME280;55932;48.702;8.884;2024-03-25T17:49:57;94620;;;7.3;70
68891;BME280;55932;48.702;8.884;2024-03-25T17:52:27;94610;;;7.2;69.5
68891;BME280;55932;48.702;8.884;2024-03-25T17:55:07;94620;;;7.1;69.5
68891;BME280;55932;48.702;8.884;2024-03-25T17:57:47;94610;;;6.9;70
68891;BME280;55932;48.702;8.884;2024-03-25T17:59:59;94610;;;6.7;70
68891;BME280;55932;48.702;8.884;2024-03-25T18:02:30;94610;;;6.7;70
68891;BME280;55932;48.702;8.884;2024-03-25T18:05:01;94610;;;6.6;70
68891;BME280;55932;48.702;8.884;2024-03-25T18:07:19;94610;;;6.4;70.5
68891;BME280;55932;48.702;8.884;2024-03-25T18:09:50;94610;;;6.2;70.5
68891;BME280;55932;48.702;8.884;2024-03-25T18:12:19;94610;;;6.1;70.5
68891;BME280;55932;48.702;8.884;2024-03-25T18:14:59;94610;;;6.3;70
68891;BME280;55932;48.702;8.884;2024-03-25T18:19:50;94600;;;6;70.5
68891;BME280;55932;48.702;8.884;2024-03-25T18:22:20;94600;;;5.8;70.5
68891;BME280;55932;48.702;8.884;2024-03-25T18:24:50;94600;;;5.5;70.5
68891;BME280;55932;48.702;8.884;2024-03-25T18:27:20;94600;;;5.3;70.5
68891;BME280;55932;48.702;8.884;2024-03-25T18:29:59;94600;;;5.3;70.5
68891;BME280;55932;48.702;8.884;2024-03-25T18:32:29;94600;;;5.2;70.5
68891;BME280;55932;48.702;8.884;2024-03-25T18:34:50;94590;;;5.3;70.5
68891;BME280;55932;48.702;8.884;2024-03-25T18:37:21;94580;;;5.3;70.5
68891;BME280;55932;48.702;8.884;2024-03-25T18:39:51;94590;;;5.3;70.5
68891;BME280;55932;48.702;8.884;2024-03-25T18:42:21;94580;;;5.6;70
68891;BME280;55932;48.702;8.884;2024-03-25T18:44:51;94590;;;5.9;70
68891;BME280;55932;48.702;8.884;2024-03-25T18:47:21;94580;;;6.1;70
68891;BME280;55932;48.702;8.884;2024-03-25T18:49:51;94580;;;6.1;70
68891;BME280;55932;48.702;8.884;2024-03-25T18:52:21;94580;;;6.1;70
68891;BME280;55932;48.702;8.884;2024-03-25T18:59:52;94580;;;5;71